sensor_id;sensor_type;location;lat;lon;timestamp;temperature;humidity
7366;DHT22;3723;52.220;8.792;2022-08-05T01:41:08;17.70;56.20
7366;DHT22;3723;52.220;8.792;2022-08-05T01:43:42;17.60;99.90
7366;DHT22;3723;52.220;8.792;2022-08-05T01:46:10;17.60;99.90
7366;DHT22;3723;52.220;8.792;2022-08-05T01:48:40;17.50;99.90
7366;DHT22;3723;52.220;8.792;2022-08-05T01:51:08;17.50;1.00
7366;DHT22;3723;52.220;8.792;2022-08-05T01:53:38;17.50;1.00
7366;DHT22;3723;52.220;8.792;2022-08-05T01:56:06;17.50;1.00
7366;DHT22;3723;52.220;8.792;2022-08-05T01:58:37;17.50;1.00
7366;DHT22;3723;52.220;8.792;2022-08-05T02:01:06;17.40;1.00
7366;DHT22;3723;52.220;8.792;2022-08-05T02:03:36;17.50;1.00
7366;DHT22;3723;52.220;8.792;2022-08-05T02:06:05;17.50;1.00
7366;DHT22;3723;52.220;8.792;2022-08-05T02:08:33;17.50;1.00
7366;DHT22;3723;52.220;8.792;2022-08-05T02:11:03;17.50;1.00
7366;DHT22;3723;52.220;8.792;2022-08-05T02:13:43;17.50;1.00
7366;DHT22;3723;52.220;8.792;2022-08-05T02:16:18;17.50;1.00
7366;DHT22;3723;52.220;8.792;2022-08-05T02:18:49;17.40;1.00
7366;DHT22;3723;52.220;8.792;2022-08-05T02:21:20;17.40;99.90
7366;DHT22;3723;52.220;8.792;2022-08-05T02:23:51;17.40;99.90
7366;DHT22;3723;52.220;8.792;2022-08-05T02:26:22;17.40;99.90
7366;DHT22;3723;52.220;8.792;2022-08-05T02:28:50;17.40;99.90
7366;DHT22;3723;52.220;8.792;2022-08-05T02:31:22;17.40;99.90
7366;DHT22;3723;52.220;8.792;2022-08-05T02:33:56;17.40;99.90
7366;DHT22;3723;52.220;8.792;2022-08-05T02:36:25;17.40;84.50
7366;DHT22;3723;52.220;8.792;2022-08-05T02:38:54;17.50;99.90
7366;DHT22;3723;52.220;8.792;2022-08-05T02:41:23;17.40;90.60
7366;DHT22;3723;52.220;8.792;2022-08-05T02:43:51;17.50;99.90
7366;DHT22;3723;52.220;8.792;2022-08-05T02:46:20;17.60;99.90
7366;DHT22;3723;52.220;8.792;2022-08-05T02:48:48;17.60;99.90
7366;DHT22;3723;52.220;8.792;2022-08-05T02:51:16;17.50;99.90
7366;DHT22;3723;52.220;8.792;2022-08-05T02:53:44;17.50;99.90
7366;DHT22;3723;52.220;8.792;2022-08-05T02:56:12;17.40;99.90
7366;DHT22;3723;52.220;8.792;2022-08-05T02:58:43;17.40;99.90
7366;DHT22;3723;52.220;8.792;2022-08-05T03:01:15;17.30;99.90
7366;DHT22;3723;52.220;8.792;2022-08-05T03:03:48;17.30;1.00
7366;DHT22;3723;52.220;8.792;2022-08-05T03:06:16;17.30;1.00
7366;DHT22;3723;52.220;8.792;2022-08-05T03:08:46;17.20;1.00
7366;DHT22;3723;52.220;8.792;2022-08-05T03:11:21;17.10;1.00
7366;DHT22;3723;52.220;8.792;2022-08-05T03:13:49;17.10;99.90
7366;DHT22;3723;52.220;8.792;2022-08-05T03:16:17;17.10;1.00
7366;DHT22;3723;52.220;8.792;2022-08-05T03:18:46;17.00;99.90
7366;DHT22;3723;52.220;8.792;2022-08-05T03:21:13;17.00;99.90
7366;DHT22;3723;52.220;8.792;2022-08-05T03:23:41;17.00;99.90
7366;DHT22;3723;52.220;8.792;2022-08-05T03:26:09;17.00;99.90
7366;DHT22;3723;52.220;8.792;2022-08-05T03:28:36;17.00;99.90
7366;DHT22;3723;52.220;8.792;2022-08-05T03:31:04;16.90;99.90
7366;DHT22;3723;52.220;8.792;2022-08-05T03:33:31;16.90;99.90
7366;DHT22;3723;52.220;8.792;2022-08-05T03:36:00;16.90;99.90
7366;DHT22;3723;52.220;8.792;2022-08-05T03:38:27;16.90;99.90
7366;DHT22;3723;52.220;8.792;2022-08-05T03:40:54;16.90;99.90
7366;DHT22;3723;52.220;8.792;2022-08-05T03:43:21;16.90;99.90
7366;DHT22;3723;52.220;8.792;2022-08-05T03:45:50;16.80;99.90
7366;DHT22;3723;52.220;8.792;2022-08-05T03:48:18;16.90;99.90
7366;DHT22;3723;52.220;8.792;2022-08-05T03:50:50;16.90;99.90
7366;DHT22;3723;52.220;8.792;2022-08-05T03:53:24;16.90;99.90
7366;DHT22;3723;52.220;8.792;2022-08-05T03:56:01;16.90;99.90
7366;DHT22;3723;52.220;8.792;2022-08-05T03:58:30;16.90;99.90
7366;DHT22;3723;52.220;8.792;2022-08-05T04:00:59;17.00;99.90
7366;DHT22;3723;52.220;8.792;2022-08-05T04:03:28;17.00;99.90
7366;DHT22;3723;52.220;8.792;2022-08-05T04:05:57;17.00;99.90
7366;DHT22;3723;52.220;8.792;2022-08-05T04:08:27;17.10;99.90
7366;DHT22;3723;52.220;8.792;2022-08-05T04:10:56;17.10;1.00
7366;DHT22;3723;52.220;8.792;2022-08-05T04:13:23;17.10;1.00
7366;DHT22;3723;52.220;8.792;2022-08-05T04:15:55;17.10;1.00
7366;DHT22;3723;52.220;8.792;2022-08-05T04:18:24;17.10;99.90
7366;DHT22;3723;52.220;8.792;2022-08-05T04:20:55;17.10;99.90
7366;DHT22;3723;52.220;8.792;2022-08-05T04:23:23;17.10;99.90
7366;DHT22;3723;52.220;8.792;2022-08-05T04:25:51;17.00;99.90
7366;DHT22;3723;52.220;8.792;2022-08-05T04:28:18;17.00;99.90
7366;DHT22;3723;52.220;8.792;2022-08-05T04:30:46;17.00;99.90
7366;DHT22;3723;52.220;8.792;2022-08-05T04:33:16;17.00;89.10
7366;DHT22;3723;52.220;8.792;2022-08-05T04:35:43;17.00;47.20
7366;DHT22;3723;52.220;8.792;2022-08-05T04:38:10;16.90;99.90
7366;DHT22;3723;52.220;8.792;2022-08-05T04:40:38;16.90;80.70
7366;DHT22;3723;52.220;8.792;2022-08-05T04:43:07;16.90;1.00
7366;DHT22;3723;52.220;8.792;2022-08-05T04:45:34;16.90;1.00
7366;DHT22;3723;52.220;8.792;2022-08-05T04:48:05;16.90;1.00
7366;DHT22;3723;52.220;8.792;2022-08-05T04:50:38;16.80;1.00
7366;DHT22;3723;52.220;8.792;2022-08-05T04:53:06;16.80;1.00
7366;DHT22;3723;52.220;8.792;2022-08-05T04:55:34;16.80;1.00
7366;DHT22;3723;52.220;8.792;2022-08-05T04:58:00;16.70;1.00
7366;DHT22;3723;52.220;8.792;2022-08-05T05:00:29;16.70;1.00
7366;DHT22;3723;52.220;8.792;2022-08-05T05:02:57;16.70;1.00
7366;DHT22;3723;52.220;8.792;2022-08-05T05:05:24;16.70;1.00
7366;DHT22;3723;52.220;8.792;2022-08-05T05:07:51;16.70;1.00
7366;DHT22;3723;52.220;8.792;2022-08-05T05:10:18;16.80;1.00
7366;DHT22;3723;52.220;8.792;2022-08-05T05:12:44;16.70;1.00
7366;DHT22;3723;52.220;8.792;2022-08-05T05:15:11;16.70;1.00
7366;DHT22;3723;52.220;8.792;2022-08-05T05:17:41;16.70;1.00
7366;DHT22;3723;52.220;8.792;2022-08-05T05:20:10;16.60;1.00
7366;DHT22;3723;52.220;8.792;2022-08-05T05:22:37;16.60;1.00
7366;DHT22;3723;52.220;8.792;2022-08-05T05:25:05;16.50;1.00
7366;DHT22;3723;52.220;8.792;2022-08-05T05:27:34;16.50;1.00
7366;DHT22;3723;52.220;8.792;2022-08-05T05:30:01;16.50;1.00
7366;DHT22;3723;52.220;8.792;2022-08-05T05:32:28;16.50;1.00
7366;DHT22;3723;52.220;8.792;2022-08-05T05:34:56;16.50;1.00
7366;DHT22;3723;52.220;8.792;2022-08-05T05:37:23;16.50;1.00
7366;DHT22;3723;52.220;8.792;2022-08-05T05:39:50;16.40;1.00
7366;DHT22;3723;52.220;8.792;2022-08-05T05:42:17;16.50;1.00
7366;DHT22;3723;52.220;8.792;2022-08-05T05:44:44;16.50;1.00
7366;DHT22;3723;52.220;8.792;2022-08-05T05:47:11;16.50;1.00
7366;DHT22;3723;52.220;8.792;2022-08-05T05:49:38;16.60;1.00
7366;DHT22;3723;52.220;8.792;2022-08-05T05:52:07;16.60;1.00
7366;DHT22;3723;52.220;8.792;2022-08-05T05:54:34;16.60;1.00
7366;DHT22;3723;52.220;8.792;2022-08-05T05:57:01;16.60;1.00
7366;DHT22;3723;52.220;8.792;2022-08-05T05:59:28;16.60;1.00
7366;DHT22;3723;52.220;8.792;2022-08-05T06:01:54;16.60;1.00
7366;DHT22;3723;52.220;8.792;2022-08-05T06:04:21;16.60;1.00
7366;DHT22;3723;52.220;8.792;2022-08-05T06:06:48;16.60;1.00
7366;DHT22;3723;52.220;8.792;2022-08-05T06:09:16;16.60;1.00
7366;DHT22;3723;52.220;8.792;2022-08-05T06:11:43;16.50;1.00
7366;DHT22;3723;52.220;8.792;2022-08-05T06:14:11;16.60;1.00
7366;DHT22;3723;52.220;8.792;2022-08-05T06:16:38;16.60;99.90
7366;DHT22;3723;52.220;8.792;2022-08-05T06:19:05;16.70;1.00
7366;DHT22;3723;52.220;8.792;2022-08-05T06:21:32;16.70;1.00
7366;DHT22;3723;52.220;8.792;2022-08-05T06:23:59;16.70;1.00
7366;DHT22;3723;52.220;8.792;2022-08-05T06:26:27;16.70;1.00
7366;DHT22;3723;52.220;8.792;2022-08-05T06:28:54;16.60;1.00
7366;DHT22;3723;52.220;8.792;2022-08-05T06:31:21;16.60;1.00
7366;DHT22;3723;52.220;8.792;2022-08-05T06:33:48;16.60;1.00
7366;DHT22;3723;52.220;8.792;2022-08-05T06:36:15;16.60;1.00
7366;DHT22;3723;52.220;8.792;2022-08-05T06:38:43;16.50;1.00
7366;DHT22;3723;52.220;8.792;2022-08-05T06:41:10;16.50;1.00
7366;DHT22;3723;52.220;8.792;2022-08-05T06:43:39;16.50;1.00
7366;DHT22;3723;52.220;8.792;2022-08-05T06:46:05;16.50;1.00
7366;DHT22;3723;52.220;8.792;2022-08-05T06:48:32;16.60;1.00
7366;DHT22;3723;52.220;8.792;2022-08-05T06:50:59;16.70;1.00
7366;DHT22;3723;52.220;8.792;2022-08-05T06:53:26;16.80;1.00
7366;DHT22;3723;52.220;8.792;2022-08-05T06:55:53;16.90;99.90
7366;DHT22;3723;52.220;8.792;2022-08-05T06:58:20;17.00;99.90
7366;DHT22;3723;52.220;8.792;2022-08-05T07:00:49;17.10;99.90
7366;DHT22;3723;52.220;8.792;2022-08-05T07:03:16;17.10;99.90
7366;DHT22;3723;52.220;8.792;2022-08-05T07:05:43;17.20;99.90
7366;DHT22;3723;52.220;8.792;2022-08-05T07:08:10;17.30;99.90
7366;DHT22;3723;52.220;8.792;2022-08-05T07:10:38;17.40;99.90
7366;DHT22;3723;52.220;8.792;2022-08-05T07:13:07;17.60;99.90
7366;DHT22;3723;52.220;8.792;2022-08-05T07:15:53;17.50;99.90
7366;DHT22;3723;52.220;8.792;2022-08-05T07:18:37;17.50;99.90
7366;DHT22;3723;52.220;8.792;2022-08-05T07:21:07;17.60;99.90
7366;DHT22;3723;52.220;8.792;2022-08-05T07:23:35;17.70;99.90
7366;DHT22;3723;52.220;8.792;2022-08-05T07:26:10;17.80;99.90
7366;DHT22;3723;52.220;8.792;2022-08-05T07:28:39;17.80;99.90
7366;DHT22;3723;52.220;8.792;2022-08-05T07:31:42;18.00;99.90
7366;DHT22;3723;52.220;8.792;2022-08-05T07:34:29;18.10;99.90
7366;DHT22;3723;52.220;8.792;2022-08-05T07:37:08;18.30;99.90
7366;DHT22;3723;52.220;8.792;2022-08-05T07:39:35;18.40;99.90
7366;DHT22;3723;52.220;8.792;2022-08-05T07:42:09;18.50;99.90
7366;DHT22;3723;52.220;8.792;2022-08-05T07:51:40;18.80;99.90
7366;DHT22;3723;52.220;8.792;2022-08-05T07:55:15;18.80;99.90
7366;DHT22;3723;52.220;8.792;2022-08-05T07:58:36;18.70;99.90
7366;DHT22;3723;52.220;8.792;2022-08-05T08:01:13;18.50;99.90
7366;DHT22;3723;52.220;8.792;2022-08-05T08:04:04;18.40;99.90
7366;DHT22;3723;52.220;8.792;2022-08-05T08:10:00;18.50;99.90
7366;DHT22;3723;52.220;8.792;2022-08-05T08:23:17;18.60;99.90
7366;DHT22;3723;52.220;8.792;2022-08-05T08:49:52;19.70;99.90
7366;DHT22;3723;52.220;8.792;2022-08-05T08:52:42;19.70;99.90
7366;DHT22;3723;52.220;8.792;2022-08-05T09:27:20;18.80;99.90
7366;DHT22;3723;52.220;8.792;2022-08-05T09:32:33;18.10;99.90
7366;DHT22;3723;52.220;8.792;2022-08-05T09:35:11;17.80;99.90
7366;DHT22;3723;52.220;8.792;2022-08-05T10:00:51;17.10;99.90
7366;DHT22;3723;52.220;8.792;2022-08-05T10:10:16;17.20;99.90
7366;DHT22;3723;52.220;8.792;2022-08-05T10:16:56;17.30;99.90
7366;DHT22;3723;52.220;8.792;2022-08-05T10:19:55;17.20;99.90
7366;DHT22;3723;52.220;8.792;2022-08-05T10:23:07;17.10;99.90
7366;DHT22;3723;52.220;8.792;2022-08-05T16:16:19;26.20;97.20
7366;DHT22;3723;52.220;8.792;2022-08-05T16:25:33;27.40;97.00
7366;DHT22;3723;52.220;8.792;2022-08-05T16:30:42;27.20;95.70
7366;DHT22;3723;52.220;8.792;2022-08-05T16:35:25;26.70;91.20
7366;DHT22;3723;52.220;8.792;2022-08-05T16:38:20;26.40;89.10
7366;DHT22;3723;52.220;8.792;2022-08-05T16:41:04;26.00;85.10
7366;DHT22;3723;52.220;8.792;2022-08-05T16:43:45;25.70;81.40
7366;DHT22;3723;52.220;8.792;2022-08-05T16:53:36;25.10;75.10
7366;DHT22;3723;52.220;8.792;2022-08-05T16:59:39;24.80;74.60
7366;DHT22;3723;52.220;8.792;2022-08-05T17:06:39;24.50;72.30
7366;DHT22;3723;52.220;8.792;2022-08-05T17:19:46;24.00;68.30
7366;DHT22;3723;52.220;8.792;2022-08-05T17:22:27;23.20;61.70
7366;DHT22;3723;52.220;8.792;2022-08-05T18:06:50;18.40;59.00
7366;DHT22;3723;52.220;8.792;2022-08-05T22:58:06;10.20;99.90
7366;DHT22;3723;52.220;8.792;2022-08-05T23:01:14;10.10;99.90
7366;DHT22;3723;52.220;8.792;2022-08-05T23:04:31;10.10;99.90
7366;DHT22;3723;52.220;8.792;2022-08-05T23:07:38;10.10;99.90
7366;DHT22;3723;52.220;8.792;2022-08-05T23:14:09;10.20;99.90
7366;DHT22;3723;52.220;8.792;2022-08-05T23:24:05;10.00;99.90
